createdAt,value
2023-03-06T00:04:16.018Z,-2.54
2023-03-06T00:09:20.852Z,-2.59
2023-03-06T00:14:23.890Z,-2.70
2023-03-06T00:19:27.543Z,-2.80
2023-03-06T00:24:32.640Z,-2.86
2023-03-06T00:29:36.193Z,-2.88
2023-03-06T00:34:39.702Z,-2.84
2023-03-06T00:39:44.623Z,-2.74
2023-03-06T00:44:48.627Z,-2.59
2023-03-06T00:49:52.213Z,-2.48
2023-03-06T00:54:56.973Z,-2.28
2023-03-06T01:00:00.780Z,-2.23
2023-03-06T01:05:04.312Z,-2.09
2023-03-06T01:10:11.903Z,-1.79
2023-03-06T01:15:16.155Z,-1.55
2023-03-06T01:20:20.056Z,-1.44
2023-03-06T01:25:25.047Z,-1.50
2023-03-06T01:30:28.576Z,-1.62
2023-03-06T01:35:32.204Z,-1.58
2023-03-06T01:40:38.698Z,-1.35
2023-03-06T01:46:31.054Z,-1.28
2023-03-06T01:51:39.531Z,-1.40
2023-03-06T01:56:47.991Z,-1.24
2023-03-06T02:01:52.668Z,-1.19
2023-03-06T02:06:56.838Z,-1.26
2023-03-06T02:12:02.294Z,-1.45
2023-03-06T02:17:05.768Z,-1.58
2023-03-06T02:22:09.205Z,-1.59
2023-03-06T02:27:16.162Z,-1.47
2023-03-06T02:32:19.669Z,-1.58
2023-03-06T02:37:24.387Z,-1.43
2023-03-06T02:42:30.251Z,-1.22
2023-03-06T02:47:34.798Z,-1.28
2023-03-06T02:52:38.276Z,-1.44
2023-03-06T02:57:43.051Z,-1.28
2023-03-06T03:02:47.131Z,-1.28
2023-03-06T03:07:50.636Z,-1.24
2023-03-06T03:12:55.432Z,-1.30
2023-03-06T03:17:58.447Z,-1.12
2023-03-06T03:23:01.909Z,-1.08
2023-03-06T03:28:06.791Z,-1.01
2023-03-06T03:33:10.163Z,-0.95
2023-03-06T03:38:13.505Z,-0.98
2023-03-06T03:43:18.923Z,-1.08
2023-03-06T03:48:22.754Z,-1.14
2023-03-06T03:53:26.304Z,-1.08
2023-03-06T03:58:31.256Z,-0.97
2023-03-06T04:03:34.838Z,-0.92
2023-03-06T04:08:38.314Z,-0.98
2023-03-06T04:13:43.065Z,-0.92
2023-03-06T04:18:46.597Z,-0.98
2023-03-06T04:23:49.958Z,-1.01
2023-03-06T04:28:55.772Z,-0.90
2023-03-06T04:33:59.304Z,-0.90
2023-03-06T04:39:03.163Z,-0.86
2023-03-06T04:44:08.832Z,-0.73
2023-03-06T04:49:12.273Z,-0.68
2023-03-06T04:54:17.385Z,-0.64
2023-03-06T04:59:23.577Z,-0.40
2023-03-06T05:04:26.989Z,-0.37
2023-03-06T05:09:30.800Z,-0.21
2023-03-06T05:14:35.840Z,-0.07
2023-03-06T05:19:39.420Z,0.12
2023-03-06T05:24:43.169Z,0.52
2023-03-06T05:29:48.266Z,0.94
2023-03-06T05:34:52.037Z,1.49
2023-03-06T05:39:55.579Z,1.98
2023-03-06T05:45:00.748Z,1.90
2023-03-06T05:50:05.965Z,2.04
2023-03-06T05:55:12.013Z,2.06
2023-03-06T06:00:19.150Z,2.29
2023-03-06T06:05:22.727Z,2.67
2023-03-06T06:10:26.211Z,3.69
2023-03-06T06:15:30.987Z,5.32
2023-03-06T06:20:34.375Z,7.21
2023-03-06T06:25:38.593Z,7.38
2023-03-06T06:30:43.354Z,6.30
2023-03-06T06:35:46.884Z,5.18
2023-03-06T06:41:26.850Z,4.71
2023-03-06T06:46:49.733Z,4.69
2023-03-06T06:51:38.914Z,4.35
2023-03-06T06:56:42.450Z,4.38
2023-03-06T07:01:47.499Z,4.48
2023-03-06T07:06:50.840Z,3.74
2023-03-06T07:11:54.209Z,3.58
2023-03-06T07:17:01.697Z,3.33
2023-03-06T07:22:05.473Z,3.42
2023-03-06T07:27:09.029Z,3.91
2023-03-06T07:32:14.090Z,5.94
2023-03-06T07:37:17.535Z,5.78
2023-03-06T07:42:21.216Z,5.38
2023-03-06T07:47:26.246Z,4.82
2023-03-06T07:52:29.846Z,3.90
2023-03-06T07:57:34.580Z,3.51
2023-03-06T08:02:39.612Z,3.09
2023-03-06T08:07:43.248Z,3.10
2023-03-06T08:12:46.747Z,3.54
2023-03-06T08:17:52.504Z,3.57
2023-03-06T08:22:55.839Z,4.60
2023-03-06T08:27:59.464Z,5.57
2023-03-06T08:33:04.366Z,5.44
2023-03-06T08:38:07.578Z,5.20
2023-03-06T08:43:13.968Z,6.08
2023-03-06T08:48:18.982Z,6.23
2023-03-06T08:53:36.668Z,5.73
2023-03-06T08:58:45.406Z,5.70
2023-03-06T09:03:50.333Z,5.06
2023-03-06T09:08:53.900Z,4.69
2023-03-06T09:13:58.001Z,3.79
2023-03-06T09:19:02.962Z,3.60
2023-03-06T09:24:06.447Z,4.44
2023-03-06T09:29:10.359Z,4.36
2023-03-06T09:34:15.376Z,4.68
2023-03-06T09:39:18.409Z,4.78
2023-03-06T09:44:26.176Z,4.26
2023-03-06T09:49:50.950Z,5.12
2023-03-06T09:54:56.915Z,5.10
2023-03-06T10:00:04.749Z,4.77
2023-03-06T10:05:15.352Z,5.16
2023-03-06T10:10:23.408Z,5.67
2023-03-06T10:15:29.713Z,5.89
2023-03-06T10:20:43.741Z,5.78
2023-03-06T10:25:55.898Z,5.77
2023-03-06T10:31:04.644Z,5.32
2023-03-06T10:36:14.435Z,5.59
2023-03-06T10:41:28.650Z,4.73
2023-03-06T10:46:33.781Z,4.46
2023-03-06T10:51:38.596Z,5.18
2023-03-06T10:56:43.606Z,5.03
2023-03-06T11:01:49.014Z,4.73
2023-03-06T11:07:09.261Z,4.89
2023-03-06T11:12:26.663Z,4.55
2023-03-06T11:17:32.346Z,4.24
2023-03-06T11:22:41.366Z,4.36
2023-03-06T11:27:48.192Z,4.19
2023-03-06T11:32:56.830Z,3.82
2023-03-06T11:38:07.449Z,3.41
2023-03-06T11:43:20.560Z,3.14
2023-03-06T11:48:29.531Z,3.47
2023-03-06T11:53:37.273Z,3.62
2023-03-06T11:58:55.141Z,4.13
2023-03-06T12:04:25.912Z,3.96
2023-03-06T12:09:40.969Z,3.64
2023-03-06T12:14:50.075Z,3.96
2023-03-06T12:20:13.211Z,3.83
2023-03-06T12:25:31.462Z,3.27
2023-03-06T12:31:03.402Z,3.50
2023-03-06T12:36:31.849Z,3.59
2023-03-06T12:41:55.845Z,2.96
2023-03-06T12:47:03.422Z,2.75
2023-03-06T12:52:09.823Z,2.54
2023-03-06T12:57:16.815Z,2.27
2023-03-06T13:03:06.338Z,2.06
2023-03-06T13:08:36.164Z,1.71
2023-03-06T13:13:51.200Z,2.37
2023-03-06T13:18:57.207Z,2.17
2023-03-06T13:24:06.261Z,2.10
2023-03-06T13:29:42.905Z,2.03
2023-03-06T13:34:50.262Z,2.44
2023-03-06T13:40:16.018Z,2.26
2023-03-06T13:45:25.911Z,2.27
2023-03-06T13:50:40.003Z,2.00
2023-03-06T13:55:54.231Z,1.79
2023-03-06T14:01:24.260Z,1.84
2023-03-06T14:07:11.232Z,1.69
2023-03-06T14:12:20.299Z,1.62
2023-03-06T14:17:29.865Z,1.22
2023-03-06T14:22:34.764Z,1.31
2023-03-06T14:27:44.304Z,0.96
2023-03-06T14:32:48.275Z,0.78
2023-03-06T14:37:56.288Z,0.65
2023-03-06T14:43:20.748Z,0.57
2023-03-06T14:48:26.176Z,0.29
2023-03-06T14:53:33.547Z,0.07
2023-03-06T14:58:42.976Z,0.05
2023-03-06T15:03:50.784Z,0.16
2023-03-06T15:09:02.531Z,0.20
2023-03-06T15:14:06.432Z,0.15
2023-03-06T15:19:20.754Z,0.06
2023-03-06T15:24:37.554Z,-0.23
2023-03-06T15:29:41.254Z,-0.45
2023-03-06T15:34:44.653Z,-0.55
2023-03-06T15:40:09.318Z,-0.56
2023-03-06T15:45:18.190Z,-0.75
2023-03-06T15:50:23.400Z,-0.84
2023-03-06T15:55:28.530Z,-1.08
2023-03-06T16:00:35.796Z,-1.13
2023-03-06T16:05:40.242Z,-1.16
2023-03-06T16:10:46.611Z,-1.19
2023-03-06T16:15:51.944Z,-1.21
2023-03-06T16:20:55.439Z,-1.29
2023-03-06T16:26:00.556Z,-1.20
2023-03-06T16:31:04.157Z,-1.35
2023-03-06T16:36:14.211Z,-1.32
2023-03-06T16:41:20.503Z,-1.66
2023-03-06T16:46:26.754Z,-1.56
2023-03-06T16:51:30.373Z,-1.48
2023-03-06T16:56:35.354Z,-1.39
2023-03-06T17:01:39.450Z,-1.52
2023-03-06T17:06:43.460Z,-1.79
2023-03-06T17:11:48.389Z,-1.77
2023-03-06T17:16:52.231Z,-1.95
2023-03-06T17:21:55.981Z,-2.03
2023-03-06T17:27:00.914Z,-2.02
2023-03-06T17:32:05.023Z,-2.07
2023-03-06T17:37:08.586Z,-1.85
2023-03-06T17:42:13.553Z,-1.87
2023-03-06T17:47:17.014Z,-1.91
2023-03-06T17:52:20.435Z,-2.14
2023-03-06T17:57:25.232Z,-2.01
2023-03-06T18:02:28.453Z,-1.96
2023-03-06T18:07:32.159Z,-2.06
2023-03-06T18:12:37.091Z,-2.05
2023-03-06T18:17:40.640Z,-2.28
2023-03-06T18:22:44.184Z,-2.30
2023-03-06T18:27:49.001Z,-2.51
2023-03-06T18:32:52.048Z,-2.57
2023-03-06T18:37:55.789Z,-2.65
2023-03-06T18:43:00.760Z,-2.55
2023-03-06T18:48:05.103Z,-2.56
2023-03-06T18:53:08.480Z,-2.67
2023-03-06T18:58:13.376Z,-2.58
2023-03-06T19:03:17.705Z,-2.60
2023-03-06T19:08:21.223Z,-2.48
2023-03-06T19:13:25.974Z,-2.32
2023-03-06T19:18:29.890Z,-2.25
2023-03-06T19:23:33.253Z,-2.28
2023-03-06T19:28:40.327Z,-2.21
2023-03-06T19:33:44.364Z,-2.22
2023-03-06T19:38:52.783Z,-2.26
2023-03-06T19:43:59.482Z,-2.48
2023-03-06T19:49:09.755Z,-2.56
2023-03-06T19:54:13.732Z,-2.76
2023-03-06T19:59:18.516Z,-2.72
2023-03-06T20:04:22.437Z,-2.68
2023-03-06T20:09:25.862Z,-2.70
2023-03-06T20:14:30.870Z,-2.89
2023-03-06T20:19:34.358Z,-3.08
2023-03-06T20:24:37.841Z,-3.18
2023-03-06T20:29:45.054Z,-3.06
2023-03-06T20:34:48.414Z,-2.97
2023-03-06T20:39:52.796Z,-2.67
2023-03-06T20:44:57.905Z,-2.58
2023-03-06T20:50:03.795Z,-2.60
2023-03-06T20:55:08.223Z,-2.65
2023-03-06T21:00:14.340Z,-2.49
2023-03-06T21:05:18.052Z,-2.50
2023-03-06T21:10:21.450Z,-2.53
2023-03-06T21:15:30.089Z,-2.44
2023-03-06T21:20:33.651Z,-2.45
2023-03-06T21:25:37.038Z,-2.30
2023-03-06T21:30:41.949Z,-2.24
2023-03-06T21:35:46.797Z,-2.20
2023-03-06T21:40:50.574Z,-2.14
2023-03-06T21:45:58.393Z,-2.09
2023-03-06T21:51:07.146Z,-2.04
2023-03-06T21:56:11.200Z,-2.06
2023-03-06T22:01:19.272Z,-2.11
2023-03-06T22:06:25.201Z,-2.18
2023-03-06T22:11:31.615Z,-2.25
2023-03-06T22:16:36.646Z,-2.20
2023-03-06T22:21:40.268Z,-2.29
2023-03-06T22:26:43.726Z,-2.29
2023-03-06T22:31:48.793Z,-2.31
2023-03-06T22:36:52.418Z,-2.48
2023-03-06T22:41:56.746Z,-2.39
2023-03-06T22:47:01.759Z,-2.47
2023-03-06T22:52:05.285Z,-2.54
2023-03-06T22:57:08.803Z,-2.44
2023-03-06T23:02:13.705Z,-2.29
2023-03-06T23:07:17.221Z,-2.36
2023-03-06T23:12:20.596Z,-2.48
2023-03-06T23:17:25.528Z,-2.42
2023-03-06T23:22:29.375Z,-2.54
2023-03-06T23:27:33.388Z,-2.76
2023-03-06T23:32:38.347Z,-2.95
2023-03-06T23:37:41.819Z,-3.16
2023-03-06T23:42:45.262Z,-3.18
2023-03-06T23:47:50.258Z,-3.28
2023-03-06T23:52:54.480Z,-3.36
2023-03-06T23:57:57.957Z,-3.44
